createdAt,value
2018-10-21T00:02:24.178Z,107.23
2018-10-21T00:04:52.388Z,113.27
2018-10-21T00:07:20.916Z,99.60
2018-10-21T00:09:48.842Z,97.97
2018-10-21T00:12:16.959Z,97.13
2018-10-21T00:14:45.231Z,95.50
2018-10-21T00:17:13.516Z,97.50
2018-10-21T00:19:42.076Z,92.93
2018-10-21T00:22:10.067Z,104.30
2018-10-21T00:24:38.251Z,96.17
2018-10-21T00:27:06.780Z,106.83
2018-10-21T00:29:34.838Z,107.50
2018-10-21T00:32:02.982Z,106.30
2018-10-21T00:34:31.239Z,103.27
2018-10-21T00:36:59.543Z,108.00
2018-10-21T00:39:27.771Z,108.80
2018-10-21T00:41:56.095Z,99.53
2018-10-21T00:44:24.298Z,107.03
2018-10-21T00:46:52.398Z,103.10
2018-10-21T00:49:20.670Z,101.17
2018-10-21T00:51:48.743Z,87.65
2018-10-21T00:54:16.776Z,89.07
2018-10-21T00:56:46.079Z,76.40
2018-10-21T00:59:13.790Z,81.60
2018-10-21T01:01:42.432Z,84.23
2018-10-21T01:04:10.687Z,74.47
2018-10-21T01:06:38.874Z,73.00
2018-10-21T01:09:10.999Z,75.63
2018-10-21T01:11:39.943Z,71.90
2018-10-21T01:14:08.130Z,65.60
2018-10-21T01:16:36.739Z,66.90
2018-10-21T01:19:05.343Z,73.67
2018-10-21T01:21:33.664Z,77.83
2018-10-21T01:24:02.164Z,78.93
2018-10-21T01:26:30.318Z,79.23
2018-10-21T01:28:58.447Z,85.93
2018-10-21T01:31:26.768Z,90.23
2018-10-21T01:33:54.965Z,97.00
2018-10-21T01:36:23.056Z,91.00
2018-10-21T01:38:51.355Z,91.60
2018-10-21T01:41:19.663Z,83.67
2018-10-21T01:43:48.120Z,83.77
2018-10-21T01:46:16.088Z,86.73
2018-10-21T01:48:44.263Z,83.60
2018-10-21T01:51:12.590Z,78.07
2018-10-21T01:53:40.615Z,105.07
2018-10-21T01:56:09.091Z,78.63
2018-10-21T01:58:37.082Z,75.03
2018-10-21T02:01:05.096Z,80.07
2018-10-21T02:03:33.435Z,75.87
2018-10-21T02:06:01.520Z,76.90
2018-10-21T02:08:29.631Z,85.57
2018-10-21T02:10:57.911Z,69.40
2018-10-21T02:13:26.347Z,78.37
2018-10-21T02:15:54.667Z,78.83
2018-10-21T02:18:22.916Z,69.53
2018-10-21T02:20:51.354Z,68.93
2018-10-21T02:23:19.407Z,73.77
2018-10-21T02:25:47.169Z,71.23
2018-10-21T02:28:15.193Z,68.60
2018-10-21T02:30:43.530Z,66.30
2018-10-21T02:33:11.596Z,68.33
2018-10-21T02:35:39.849Z,74.57
2018-10-21T02:38:08.166Z,69.63
2018-10-21T02:41:45.079Z,63.00
2018-10-21T02:44:17.409Z,74.13
2018-10-21T02:46:46.276Z,70.40
2018-10-21T02:49:15.116Z,66.47
2018-10-21T02:51:48.111Z,70.10
2018-10-21T02:54:20.844Z,74.73
2018-10-21T02:56:48.983Z,68.07
2018-10-21T02:59:17.487Z,68.10
2018-10-21T03:01:45.934Z,70.07
2018-10-21T03:04:14.249Z,72.70
2018-10-21T03:06:42.728Z,74.37
2018-10-21T03:09:10.956Z,81.10
2018-10-21T03:11:39.271Z,84.33
2018-10-21T03:14:07.548Z,79.57
2018-10-21T03:16:35.811Z,83.53
2018-10-21T03:19:04.352Z,79.37
2018-10-21T03:21:32.550Z,82.67
2018-10-21T03:24:00.828Z,82.30
2018-10-21T03:26:29.174Z,83.07
2018-10-21T03:28:57.590Z,78.87
2018-10-21T03:31:25.818Z,87.33
2018-10-21T03:33:54.063Z,80.90
2018-10-21T03:36:22.239Z,87.17
2018-10-21T03:38:50.486Z,90.57
2018-10-21T03:41:18.815Z,119.93
2018-10-21T03:43:47.035Z,100.77
2018-10-21T03:46:15.909Z,100.90
2018-10-21T03:48:44.212Z,93.20
2018-10-21T03:51:13.038Z,84.57
2018-10-21T03:53:41.548Z,82.77
2018-10-21T03:56:09.860Z,83.70
2018-10-21T03:58:38.151Z,78.73
2018-10-21T04:01:06.588Z,73.17
2018-10-21T04:03:35.212Z,70.53
2018-10-21T04:06:03.358Z,64.00
2018-10-21T04:08:31.609Z,67.93
2018-10-21T04:10:59.791Z,68.90
2018-10-21T04:13:27.675Z,59.20
2018-10-21T04:15:56.085Z,58.93
2018-10-21T04:18:24.379Z,58.40
2018-10-21T04:20:52.834Z,59.83
2018-10-21T04:23:21.078Z,50.53
2018-10-21T04:25:49.676Z,53.47
2018-10-21T04:28:17.774Z,54.70
2018-10-21T04:30:46.107Z,47.23
2018-10-21T04:33:46.192Z,50.70
2018-10-21T04:36:16.259Z,51.67
2018-10-21T04:38:55.694Z,53.13
2018-10-21T04:41:23.831Z,50.47
2018-10-21T04:43:51.884Z,52.53
2018-10-21T04:46:20.014Z,53.07
2018-10-21T04:48:48.158Z,57.13
2018-10-21T04:51:16.345Z,56.70
2018-10-21T04:53:44.839Z,57.20
2018-10-21T04:56:13.105Z,48.60
2018-10-21T04:58:41.374Z,52.37
2018-10-21T05:01:09.531Z,53.43
2018-10-21T05:03:37.720Z,51.23
2018-10-21T05:06:05.979Z,51.47
2018-10-21T05:08:34.052Z,54.53
2018-10-21T05:11:02.138Z,49.77
2018-10-21T05:13:30.214Z,48.03
2018-10-21T05:15:58.438Z,51.87
2018-10-21T05:18:26.763Z,56.23
2018-10-21T05:20:55.050Z,64.83
2018-10-21T05:23:23.329Z,54.47
2018-10-21T05:25:51.587Z,53.53
2018-10-21T05:28:19.675Z,55.07
2018-10-21T05:30:49.803Z,61.74
2018-10-21T05:33:18.091Z,58.90
2018-10-21T05:35:46.608Z,49.93
2018-10-21T05:38:14.841Z,55.10
2018-10-21T05:40:43.384Z,50.63
2018-10-21T05:43:11.542Z,49.73
2018-10-21T05:45:39.960Z,53.23
2018-10-21T05:48:08.161Z,51.97
2018-10-21T05:50:36.422Z,59.17
2018-10-21T05:53:04.752Z,61.87
2018-10-21T05:55:32.943Z,64.20
2018-10-21T05:58:01.501Z,58.60
2018-10-21T06:00:29.750Z,56.10
2018-10-21T06:02:58.271Z,62.97
2018-10-21T06:05:35.495Z,62.10
2018-10-21T06:08:03.214Z,55.67
2018-10-21T06:10:31.088Z,63.30
2018-10-21T06:12:59.111Z,64.10
2018-10-21T06:15:26.851Z,56.97
2018-10-21T06:17:54.674Z,70.57
2018-10-21T06:20:27.974Z,53.23
2018-10-21T06:22:55.835Z,61.33
2018-10-21T06:25:23.623Z,57.43
2018-10-21T06:27:51.477Z,56.33
2018-10-21T06:30:19.222Z,58.13
2018-10-21T06:32:46.996Z,50.00
2018-10-21T06:35:14.776Z,52.47
2018-10-21T06:37:42.510Z,46.77
2018-10-21T06:40:11.571Z,42.47
2018-10-21T06:42:39.370Z,40.90
2018-10-21T06:45:08.316Z,43.37
2018-10-21T06:47:36.108Z,40.60
2018-10-21T06:50:04.300Z,40.77
2018-10-21T06:52:32.045Z,41.63
2018-10-21T06:54:59.828Z,43.03
2018-10-21T06:57:27.700Z,37.97
2018-10-21T06:59:55.419Z,45.97
2018-10-21T07:02:23.167Z,48.37
2018-10-21T07:04:50.953Z,42.47
2018-10-21T07:07:18.666Z,40.63
2018-10-21T07:09:46.370Z,38.23
2018-10-21T07:12:14.078Z,45.43
2018-10-21T07:14:41.775Z,41.00
2018-10-21T07:17:09.510Z,40.57
2018-10-21T07:19:37.309Z,44.43
2018-10-21T07:22:05.154Z,43.17
2018-10-21T07:24:32.882Z,47.83
2018-10-21T07:27:00.658Z,42.37
2018-10-21T07:29:28.414Z,64.17
2018-10-21T07:31:56.215Z,70.60
2018-10-21T07:34:24.064Z,67.13
2018-10-21T07:36:51.766Z,65.33
2018-10-21T07:39:19.538Z,60.83
2018-10-21T07:41:47.455Z,58.63
2018-10-21T07:44:15.114Z,56.97
2018-10-21T07:46:42.847Z,54.67
2018-10-21T07:49:10.703Z,57.23
2018-10-21T07:51:38.383Z,52.77
2018-10-21T07:54:06.143Z,56.83
2018-10-21T07:56:33.954Z,49.63
2018-10-21T07:59:01.634Z,56.20
2018-10-21T08:01:29.446Z,52.77
2018-10-21T08:03:57.284Z,50.07
2018-10-21T08:06:37.000Z,52.27
2018-10-21T08:09:10.210Z,57.30
2018-10-21T08:11:37.991Z,50.43
2018-10-21T08:14:05.883Z,55.77
2018-10-21T08:16:33.647Z,57.87
2018-10-21T08:19:01.435Z,51.33
2018-10-21T08:21:29.190Z,52.80
2018-10-21T08:23:56.968Z,54.57
2018-10-21T08:26:24.742Z,58.37
2018-10-21T08:28:52.479Z,58.60
2018-10-21T08:31:20.263Z,51.13
2018-10-21T08:33:48.074Z,49.80
2018-10-21T08:36:15.871Z,47.53
2018-10-21T08:38:43.696Z,43.57
2018-10-21T08:41:11.475Z,47.90
2018-10-21T08:43:39.405Z,44.55
2018-10-21T08:46:07.251Z,45.37
2018-10-21T08:48:35.050Z,43.77
2018-10-21T08:51:02.817Z,45.40
2018-10-21T08:53:30.642Z,45.87
2018-10-21T08:55:58.492Z,39.57
2018-10-21T08:58:26.249Z,44.80
2018-10-21T09:00:54.183Z,44.97
2018-10-21T09:03:21.949Z,43.97
2018-10-21T09:05:49.760Z,41.93
2018-10-21T09:08:17.627Z,39.33
2018-10-21T09:10:45.515Z,41.90
2018-10-21T09:13:13.341Z,39.70
2018-10-21T09:15:41.133Z,40.00
2018-10-21T09:18:08.923Z,40.73
2018-10-21T09:20:36.730Z,40.90
2018-10-21T09:23:04.641Z,39.17
2018-10-21T09:25:32.460Z,35.20
2018-10-21T09:28:00.299Z,38.30
2018-10-21T09:30:28.117Z,36.60
2018-10-21T09:32:55.906Z,38.17
2018-10-21T09:35:23.783Z,36.33
2018-10-21T09:37:51.606Z,36.77
2018-10-21T09:42:55.833Z,36.10
2018-10-21T09:45:23.765Z,37.70
2018-10-21T09:47:51.553Z,39.03
2018-10-21T09:50:19.521Z,38.57
2018-10-21T09:52:47.427Z,33.57
2018-10-21T09:55:19.083Z,38.20
2018-10-21T09:57:47.569Z,35.73
2018-10-21T10:00:20.952Z,35.07
2018-10-21T10:02:54.116Z,38.77
2018-10-21T10:05:22.030Z,37.03
2018-10-21T10:07:49.790Z,33.03
2018-10-21T10:10:17.630Z,38.67
2018-10-21T10:12:45.478Z,38.93
2018-10-21T10:15:13.273Z,34.33
2018-10-21T10:17:41.094Z,38.07
2018-10-21T10:20:10.083Z,35.33
2018-10-21T10:22:37.903Z,36.30
2018-10-21T10:25:06.594Z,38.27
2018-10-21T10:27:34.406Z,37.40
2018-10-21T10:30:02.336Z,39.93
2018-10-21T10:32:30.155Z,37.20
2018-10-21T10:34:57.993Z,35.13
2018-10-21T10:37:25.804Z,35.27
2018-10-21T10:39:53.627Z,36.57
2018-10-21T10:42:21.528Z,33.10
2018-10-21T10:44:49.307Z,38.77
2018-10-21T10:47:17.217Z,33.63
2018-10-21T10:49:45.073Z,36.23
2018-10-21T10:52:13.004Z,34.27
2018-10-21T10:54:40.761Z,35.37
2018-10-21T10:57:08.576Z,32.93
2018-10-21T10:59:36.413Z,29.63
2018-10-21T11:02:04.636Z,32.43
2018-10-21T11:04:32.602Z,33.30
2018-10-21T11:07:00.522Z,33.70
2018-10-21T11:09:28.981Z,33.87
2018-10-21T11:11:56.809Z,30.33
2018-10-21T11:14:24.591Z,29.80
2018-10-21T11:16:52.376Z,29.53
2018-10-21T11:19:22.966Z,30.27
2018-10-21T11:21:50.925Z,28.80
2018-10-21T11:24:18.651Z,29.30
2018-10-21T11:26:46.553Z,28.50
2018-10-21T11:29:14.388Z,29.60
2018-10-21T11:31:42.205Z,26.17
2018-10-21T11:34:10.098Z,26.93
2018-10-21T11:36:37.966Z,27.43
2018-10-21T11:39:07.133Z,25.53
2018-10-21T11:41:34.980Z,28.07
2018-10-21T11:44:02.946Z,29.20
2018-10-21T11:46:30.821Z,30.70
2018-10-21T11:48:58.808Z,32.10
2018-10-21T11:51:26.653Z,25.23
2018-10-21T11:53:54.462Z,28.03
2018-10-21T11:56:22.349Z,25.53
2018-10-21T11:58:50.136Z,27.60
2018-10-21T12:01:18.015Z,27.30
2018-10-21T12:03:45.843Z,29.03
2018-10-21T12:06:13.686Z,25.40
2018-10-21T12:08:41.473Z,24.80
2018-10-21T12:11:09.319Z,26.50
2018-10-21T12:13:37.107Z,28.77
2018-10-21T12:16:05.518Z,27.13
2018-10-21T12:18:33.302Z,25.67
2018-10-21T12:21:01.127Z,26.33
2018-10-21T12:23:28.939Z,26.37
2018-10-21T12:25:56.904Z,27.53
2018-10-21T12:28:24.721Z,30.23
2018-10-21T12:30:52.548Z,28.13
2018-10-21T12:33:20.369Z,30.27
2018-10-21T12:35:48.207Z,27.53
2018-10-21T12:38:16.050Z,29.77
2018-10-21T12:40:43.883Z,39.03
2018-10-21T12:43:11.719Z,41.53
2018-10-21T12:45:38.789Z,69.57
2018-10-21T12:48:06.644Z,51.97
2018-10-21T12:50:34.507Z,48.43
2018-10-21T12:53:02.354Z,32.53
2018-10-21T12:55:30.179Z,34.90
2018-10-21T12:57:57.979Z,51.43
2018-10-21T13:00:25.787Z,66.60
2018-10-21T13:02:53.636Z,54.13
2018-10-21T13:05:21.440Z,51.13
2018-10-21T13:07:49.330Z,57.20
2018-10-21T13:10:17.278Z,40.20
2018-10-21T13:12:45.043Z,50.63
2018-10-21T13:15:12.782Z,41.00
2018-10-21T13:17:40.621Z,33.70
2018-10-21T13:20:08.419Z,36.47
2018-10-21T13:22:36.214Z,36.33
2018-10-21T13:25:04.191Z,32.70
2018-10-21T13:27:31.971Z,32.77
2018-10-21T13:29:59.772Z,35.77
2018-10-21T13:32:27.630Z,30.63
2018-10-21T13:34:57.653Z,34.73
2018-10-21T13:37:25.459Z,35.07
2018-10-21T13:39:53.542Z,33.47
2018-10-21T13:42:21.872Z,36.00
2018-10-21T13:44:50.137Z,31.63
2018-10-21T13:47:18.028Z,33.17
2018-10-21T13:49:46.134Z,31.27
2018-10-21T13:52:14.271Z,32.80
2018-10-21T13:54:41.920Z,32.80
2018-10-21T13:57:09.742Z,34.40
2018-10-21T13:59:40.984Z,32.33
2018-10-21T14:02:08.868Z,34.93
2018-10-21T14:04:36.649Z,32.47
2018-10-21T14:07:04.647Z,32.30
2018-10-21T14:09:32.504Z,35.33
2018-10-21T14:12:00.288Z,34.63
2018-10-21T14:14:28.079Z,34.33
2018-10-21T14:16:55.893Z,41.57
2018-10-21T14:19:23.692Z,36.13
2018-10-21T14:21:51.469Z,37.73
2018-10-21T14:24:19.476Z,38.53
2018-10-21T14:26:47.106Z,39.03
2018-10-21T14:29:14.881Z,42.73
2018-10-21T14:31:42.752Z,41.83
2018-10-21T14:34:10.535Z,43.50
2018-10-21T14:36:38.299Z,40.53
2018-10-21T14:39:09.509Z,42.47
2018-10-21T14:41:37.699Z,41.83
2018-10-21T14:44:05.915Z,41.53
2018-10-21T14:46:33.816Z,39.43
2018-10-21T14:49:01.623Z,39.20
2018-10-21T14:51:29.402Z,38.13
2018-10-21T14:53:57.319Z,34.70
2018-10-21T14:56:25.086Z,40.03
2018-10-21T14:58:53.960Z,39.12
2018-10-21T15:01:21.800Z,39.03
2018-10-21T15:03:49.585Z,29.43
2018-10-21T15:06:17.394Z,30.60
2018-10-21T15:08:45.243Z,31.27
2018-10-21T15:11:13.029Z,36.13
2018-10-21T15:13:40.857Z,28.03
2018-10-21T15:16:08.779Z,28.17
2018-10-21T15:18:36.506Z,28.60
2018-10-21T15:21:04.538Z,33.30
2018-10-21T15:23:32.329Z,31.23
2018-10-21T15:26:00.173Z,29.60
2018-10-21T15:28:27.964Z,30.10
2018-10-21T15:30:55.815Z,28.00
2018-10-21T15:33:23.607Z,26.67
2018-10-21T15:35:51.425Z,28.50
2018-10-21T15:38:19.306Z,26.23
2018-10-21T15:40:47.057Z,26.83
2018-10-21T15:43:14.809Z,30.97
2018-10-21T15:45:42.713Z,27.80
2018-10-21T15:48:10.458Z,28.57
2018-10-21T15:50:38.343Z,31.63
2018-10-21T15:53:06.195Z,29.57
2018-10-21T15:55:34.121Z,29.83
2018-10-21T15:58:02.012Z,30.67
2018-10-21T16:00:29.797Z,31.07
2018-10-21T16:02:57.593Z,29.00
2018-10-21T16:05:25.459Z,31.87
2018-10-21T16:07:53.287Z,30.10
2018-10-21T16:10:21.063Z,31.40
2018-10-21T16:12:48.891Z,30.27
2018-10-21T16:15:16.992Z,32.87
2018-10-21T16:17:45.895Z,33.90
2018-10-21T16:20:14.339Z,35.30
2018-10-21T16:22:43.237Z,28.30
2018-10-21T16:25:13.081Z,31.40
2018-10-21T16:27:41.078Z,38.77
2018-10-21T16:30:11.234Z,55.57
2018-10-21T16:32:39.505Z,66.40
2018-10-21T16:35:07.919Z,59.27
2018-10-21T16:37:35.879Z,63.87
2018-10-21T16:40:03.699Z,64.50
2018-10-21T16:42:31.492Z,56.67
2018-10-21T16:44:59.402Z,55.77
2018-10-21T16:47:27.175Z,63.93
2018-10-21T16:49:54.941Z,42.67
2018-10-21T16:52:22.774Z,49.40
2018-10-21T16:54:50.575Z,85.77
2018-10-21T16:57:18.559Z,70.83
2018-10-21T16:59:46.421Z,58.63
2018-10-21T17:02:14.159Z,38.43
2018-10-21T17:04:41.920Z,33.07
2018-10-21T17:07:09.837Z,38.20
2018-10-21T17:09:37.913Z,33.90
2018-10-21T17:12:05.829Z,49.43
2018-10-21T17:14:33.665Z,47.10
2018-10-21T17:17:01.507Z,42.27
2018-10-21T17:19:29.460Z,42.27
2018-10-21T17:21:57.418Z,40.13
2018-10-21T17:24:25.482Z,44.20
2018-10-21T17:26:53.254Z,43.83
2018-10-21T17:29:21.107Z,41.87
2018-10-21T17:31:48.906Z,46.67
2018-10-21T17:34:16.850Z,42.27
2018-10-21T17:36:44.636Z,39.83
2018-10-21T17:39:14.503Z,41.63
2018-10-21T17:41:42.477Z,41.20
2018-10-21T17:44:10.761Z,45.17
2018-10-21T17:46:38.622Z,41.63
2018-10-21T17:49:06.586Z,38.90
2018-10-21T17:51:34.459Z,36.30
2018-10-21T17:54:02.246Z,34.50
2018-10-21T17:56:30.035Z,30.67
2018-10-21T17:58:58.199Z,30.70
2018-10-21T18:01:25.988Z,33.60
2018-10-21T18:03:53.887Z,40.93
2018-10-21T18:06:21.747Z,42.73
2018-10-21T18:08:49.607Z,47.97
2018-10-21T18:11:18.044Z,50.80
2018-10-21T18:13:45.899Z,46.07
2018-10-21T18:16:13.873Z,42.60
2018-10-21T18:18:41.649Z,46.27
2018-10-21T18:21:09.467Z,42.70
2018-10-21T18:23:37.253Z,42.93
2018-10-21T18:26:05.344Z,41.03
2018-10-21T18:28:33.248Z,41.87
2018-10-21T18:31:01.062Z,40.17
2018-10-21T18:33:28.891Z,38.57
2018-10-21T18:35:56.741Z,39.03
2018-10-21T18:38:24.551Z,40.13
2018-10-21T18:40:52.514Z,46.63
2018-10-21T18:43:20.286Z,47.80
2018-10-21T18:45:48.109Z,55.77
2018-10-21T18:48:15.996Z,54.30
2018-10-21T18:50:43.837Z,53.63
2018-10-21T18:53:11.639Z,55.13
2018-10-21T18:55:39.451Z,49.53
2018-10-21T18:58:07.361Z,44.33
2018-10-21T19:00:35.237Z,49.73
2018-10-21T19:03:03.068Z,53.33
2018-10-21T19:05:30.927Z,52.17
2018-10-21T19:07:58.711Z,59.10
2018-10-21T19:10:26.487Z,62.37
2018-10-21T19:13:00.049Z,62.27
2018-10-21T19:15:22.208Z,65.60
2018-10-21T19:17:50.622Z,59.73
2018-10-21T19:20:19.133Z,61.73
2018-10-21T19:22:47.372Z,61.33
2018-10-21T19:25:16.561Z,64.50
2018-10-21T19:27:45.732Z,65.27
2018-10-21T19:30:14.721Z,68.00
2018-10-21T19:32:43.382Z,63.40
2018-10-21T19:35:12.818Z,61.60
2018-10-21T19:37:41.337Z,66.53
2018-10-21T19:40:11.809Z,64.87
2018-10-21T19:42:40.580Z,59.67
2018-10-21T19:45:09.276Z,61.87
2018-10-21T19:47:37.078Z,60.63
2018-10-21T19:50:06.071Z,57.00
2018-10-21T19:52:33.742Z,55.30
2018-10-21T19:55:01.542Z,58.43
2018-10-21T19:57:29.379Z,59.30
2018-10-21T19:59:57.196Z,62.30
2018-10-21T20:02:25.054Z,59.03
2018-10-21T20:04:52.894Z,58.43
2018-10-21T20:07:20.723Z,56.20
2018-10-21T20:09:49.176Z,53.53
2018-10-21T20:12:17.501Z,56.00
2018-10-21T20:14:45.895Z,51.83
2018-10-21T20:17:14.147Z,45.43
2018-10-21T20:19:42.669Z,40.53
2018-10-21T20:22:11.537Z,41.30
2018-10-21T20:24:40.230Z,37.30
2018-10-21T20:27:09.197Z,36.10
2018-10-21T20:29:37.548Z,28.53
2018-10-21T20:32:06.283Z,32.13
2018-10-21T20:34:34.628Z,31.57
2018-10-21T20:37:03.075Z,31.10
2018-10-21T20:39:31.171Z,31.80
2018-10-21T20:41:59.634Z,35.03
2018-10-21T20:44:27.931Z,36.03
2018-10-21T20:46:56.335Z,38.63
2018-10-21T20:49:24.665Z,36.17
2018-10-21T20:51:52.451Z,35.90
2018-10-21T20:54:20.246Z,38.33
2018-10-21T20:56:48.091Z,41.20
2018-10-21T20:59:15.933Z,51.10
2018-10-21T21:01:43.719Z,50.00
2018-10-21T21:04:11.622Z,53.20
2018-10-21T21:06:39.888Z,57.17
2018-10-21T21:09:08.936Z,63.80
2018-10-21T21:11:37.491Z,62.57
2018-10-21T21:14:05.730Z,58.97
2018-10-21T21:16:34.202Z,66.80
2018-10-21T21:19:02.090Z,60.50
2018-10-21T21:21:29.874Z,63.20
2018-10-21T21:23:57.660Z,60.73
2018-10-21T21:26:25.498Z,60.07
2018-10-21T21:28:53.286Z,60.87
2018-10-21T21:31:21.083Z,62.90
2018-10-21T21:33:48.909Z,62.87
2018-10-21T21:36:16.740Z,59.03
2018-10-21T21:38:45.180Z,62.23
2018-10-21T21:41:13.409Z,62.40
2018-10-21T21:43:41.924Z,61.93
2018-10-21T21:46:10.421Z,61.63
2018-10-21T21:48:38.157Z,55.07
2018-10-21T21:51:06.274Z,61.77
2018-10-21T21:53:34.743Z,59.10
2018-10-21T21:56:03.273Z,59.00
2018-10-21T21:58:31.429Z,59.17
2018-10-21T22:00:59.568Z,63.33
2018-10-21T22:03:27.904Z,66.37
2018-10-21T22:05:56.136Z,71.20
2018-10-21T22:08:24.623Z,68.13
2018-10-21T22:10:52.891Z,76.20
2018-10-21T22:13:21.098Z,68.80
2018-10-21T22:15:49.182Z,68.00
2018-10-21T22:18:17.385Z,69.20
2018-10-21T22:20:45.560Z,77.87
2018-10-21T22:23:13.824Z,74.87
2018-10-21T22:25:42.179Z,79.50
2018-10-21T22:28:10.458Z,77.33
2018-10-21T22:30:38.660Z,76.23
2018-10-21T22:33:07.019Z,77.83
2018-10-21T22:35:35.238Z,80.10
2018-10-21T22:38:03.575Z,78.57
2018-10-21T22:40:31.823Z,72.77
2018-10-21T22:43:00.019Z,79.33
2018-10-21T22:45:28.332Z,84.67
2018-10-21T22:47:56.682Z,81.83
2018-10-21T22:50:25.062Z,79.57
2018-10-21T22:52:53.160Z,79.47
2018-10-21T22:55:21.658Z,80.83
2018-10-21T22:57:49.864Z,78.20
2018-10-21T23:00:18.037Z,78.50
2018-10-21T23:02:50.886Z,77.67
2018-10-21T23:05:19.142Z,76.27
2018-10-21T23:07:47.244Z,71.93
2018-10-21T23:10:15.773Z,80.17
2018-10-21T23:12:43.896Z,80.50
2018-10-21T23:15:12.231Z,82.67
2018-10-21T23:17:40.712Z,77.80
2018-10-21T23:20:09.197Z,82.07
2018-10-21T23:22:37.598Z,73.43
2018-10-21T23:25:06.422Z,86.63
2018-10-21T23:27:34.751Z,72.37
2018-10-21T23:30:02.629Z,84.87
2018-10-21T23:32:30.747Z,80.03
2018-10-21T23:34:59.203Z,73.60
2018-10-21T23:37:27.434Z,75.47
2018-10-21T23:39:55.586Z,79.87
2018-10-21T23:42:23.791Z,77.27
2018-10-21T23:44:52.135Z,85.07
2018-10-21T23:47:20.351Z,79.93
2018-10-21T23:49:48.663Z,77.27
2018-10-21T23:52:17.132Z,78.17
2018-10-21T23:54:45.228Z,77.60
2018-10-21T23:57:13.507Z,76.07
2018-10-21T23:59:41.727Z,78.63
